sensor_id;sensor_type;location;lat;lon;timestamp;pressure;altitude;pressure_sealevel;temperature;humidity
82266;BME280;71866;53.340;-6.308;2023-08-06T00:01:49;101535.75;;;13.33;84.20
82266;BME280;71866;53.340;-6.308;2023-08-06T00:04:18;101537.31;;;13.36;84.87
82266;BME280;71866;53.340;-6.308;2023-08-06T00:06:44;101532.63;;;13.28;84.62
82266;BME280;71866;53.340;-6.308;2023-08-06T00:09:13;101540.16;;;13.34;84.56
82266;BME280;71866;53.340;-6.308;2023-08-06T00:11:40;101541.47;;;13.40;84.94
82266;BME280;71866;53.340;-6.308;2023-08-06T00:14:07;101540.50;;;13.41;84.08
82266;BME280;71866;53.340;-6.308;2023-08-06T00:16:34;101531.72;;;13.39;84.91
82266;BME280;71866;53.340;-6.308;2023-08-06T00:19:01;101540.50;;;13.41;84.78
82266;BME280;71866;53.340;-6.308;2023-08-06T00:21:28;101533.31;;;13.21;84.08
82266;BME280;71866;53.340;-6.308;2023-08-06T00:23:55;101533.34;;;13.30;84.31
82266;BME280;71866;53.340;-6.308;2023-08-06T00:26:21;101544.81;;;13.32;84.57
82266;BME280;71866;53.340;-6.308;2023-08-06T00:28:49;101544.50;;;13.26;84.88
82266;BME280;71866;53.340;-6.308;2023-08-06T00:31:16;101540.91;;;13.15;85.12
82266;BME280;71866;53.340;-6.308;2023-08-06T00:33:43;101545.97;;;13.09;84.65
82266;BME280;71866;53.340;-6.308;2023-08-06T00:36:10;101545.56;;;13.13;85.29
82266;BME280;71866;53.340;-6.308;2023-08-06T00:38:37;101552.41;;;13.18;85.27
82266;BME280;71866;53.340;-6.308;2023-08-06T00:41:04;101545.19;;;13.18;85.55
82266;BME280;71866;53.340;-6.308;2023-08-06T00:43:32;101545.06;;;13.20;85.57
82266;BME280;71866;53.340;-6.308;2023-08-06T00:45:58;101554.56;;;13.24;85.04
82266;BME280;71866;53.340;-6.308;2023-08-06T00:48:26;101551.28;;;13.20;84.51
82266;BME280;71866;53.340;-6.308;2023-08-06T00:50:54;101554.13;;;13.19;84.12
82266;BME280;71866;53.340;-6.308;2023-08-06T00:53:21;101562.69;;;13.12;84.28
82266;BME280;71866;53.340;-6.308;2023-08-06T00:55:48;101553.19;;;13.08;85.45
82266;BME280;71866;53.340;-6.308;2023-08-06T00:58:16;101555.47;;;13.13;85.71
82266;BME280;71866;53.340;-6.308;2023-08-06T01:00:44;101562.25;;;13.07;85.64
82266;BME280;71866;53.340;-6.308;2023-08-06T01:03:10;101546.66;;;13.01;85.93
82266;BME280;71866;53.340;-6.308;2023-08-06T01:05:38;101544.81;;;13.02;85.17
82266;BME280;71866;53.340;-6.308;2023-08-06T01:16:11;101542.59;;;12.86;85.82
82266;BME280;71866;53.340;-6.308;2023-08-06T01:18:38;101550.78;;;12.84;85.99
82266;BME280;71866;53.340;-6.308;2023-08-06T01:21:05;101549.09;;;12.83;86.29
82266;BME280;71866;53.340;-6.308;2023-08-06T01:23:32;101550.34;;;12.79;85.90
82266;BME280;71866;53.340;-6.308;2023-08-06T01:28:41;101547.91;;;12.76;86.10
82266;BME280;71866;53.340;-6.308;2023-08-06T01:31:18;101546.06;;;12.77;86.33
82266;BME280;71866;53.340;-6.308;2023-08-06T01:33:47;101551.00;;;12.72;86.46
82266;BME280;71866;53.340;-6.308;2023-08-06T01:36:19;101538.31;;;12.63;86.30
82266;BME280;71866;53.340;-6.308;2023-08-06T01:38:47;101551.25;;;12.69;86.33
82266;BME280;71866;53.340;-6.308;2023-08-06T01:41:14;101555.53;;;12.71;87.02
82266;BME280;71866;53.340;-6.308;2023-08-06T01:43:41;101551.53;;;12.66;87.10
82266;BME280;71866;53.340;-6.308;2023-08-06T01:46:08;101562.88;;;12.69;86.71
82266;BME280;71866;53.340;-6.308;2023-08-06T01:48:35;101570.78;;;12.71;87.09
82266;BME280;71866;53.340;-6.308;2023-08-06T01:51:06;101562.16;;;12.67;86.76
82266;BME280;71866;53.340;-6.308;2023-08-06T01:53:33;101574.59;;;12.68;86.06
82266;BME280;71866;53.340;-6.308;2023-08-06T01:56:01;101567.78;;;12.64;86.64
82266;BME280;71866;53.340;-6.308;2023-08-06T01:58:27;101570.38;;;12.55;86.34
82266;BME280;71866;53.340;-6.308;2023-08-06T02:00:54;101574.19;;;12.52;86.92
82266;BME280;71866;53.340;-6.308;2023-08-06T02:03:22;101574.91;;;12.54;87.25
82266;BME280;71866;53.340;-6.308;2023-08-06T02:05:49;101577.72;;;12.52;87.24
82266;BME280;71866;53.340;-6.308;2023-08-06T02:08:21;101578.69;;;12.51;87.61
82266;BME280;71866;53.340;-6.308;2023-08-06T02:10:47;101582.22;;;12.52;87.26
82266;BME280;71866;53.340;-6.308;2023-08-06T02:13:15;101573.59;;;12.48;87.86
82266;BME280;71866;53.340;-6.308;2023-08-06T02:15:42;101573.31;;;12.51;88.03
82266;BME280;71866;53.340;-6.308;2023-08-06T02:18:09;101580.13;;;12.56;87.40
82266;BME280;71866;53.340;-6.308;2023-08-06T02:20:37;101573.78;;;12.57;87.67
82266;BME280;71866;53.340;-6.308;2023-08-06T02:23:03;101566.97;;;12.52;87.75
82266;BME280;71866;53.340;-6.308;2023-08-06T02:25:31;101572.41;;;12.62;87.71
82266;BME280;71866;53.340;-6.308;2023-08-06T02:27:58;101572.31;;;12.64;86.74
82266;BME280;71866;53.340;-6.308;2023-08-06T02:30:25;101577.03;;;12.71;87.78
82266;BME280;71866;53.340;-6.308;2023-08-06T02:32:52;101577.88;;;12.72;87.43
82266;BME280;71866;53.340;-6.308;2023-08-06T02:35:20;101580.69;;;12.70;87.27
82266;BME280;71866;53.340;-6.308;2023-08-06T02:37:46;101567.84;;;12.74;88.16
82266;BME280;71866;53.340;-6.308;2023-08-06T02:40:13;101578.50;;;12.85;87.14
82266;BME280;71866;53.340;-6.308;2023-08-06T02:42:40;101567.22;;;12.91;87.81
82266;BME280;71866;53.340;-6.308;2023-08-06T02:45:07;101574.31;;;12.92;87.33
82266;BME280;71866;53.340;-6.308;2023-08-06T02:47:34;101576.88;;;12.94;87.54
82266;BME280;71866;53.340;-6.308;2023-08-06T02:50:02;101578.06;;;13.01;87.52
82266;BME280;71866;53.340;-6.308;2023-08-06T02:52:28;101570.38;;;12.96;87.08
82266;BME280;71866;53.340;-6.308;2023-08-06T02:54:56;101569.00;;;13.02;86.36
82266;BME280;71866;53.340;-6.308;2023-08-06T02:57:23;101576.41;;;13.09;87.20
82266;BME280;71866;53.340;-6.308;2023-08-06T02:59:50;101574.16;;;13.14;87.32
82266;BME280;71866;53.340;-6.308;2023-08-06T03:02:17;101564.88;;;13.19;86.91
82266;BME280;71866;53.340;-6.308;2023-08-06T03:04:43;101563.47;;;13.24;86.86
82266;BME280;71866;53.340;-6.308;2023-08-06T03:07:13;101556.66;;;13.20;85.78
82266;BME280;71866;53.340;-6.308;2023-08-06T03:09:40;101564.75;;;13.20;85.98
82266;BME280;71866;53.340;-6.308;2023-08-06T03:12:08;101569.50;;;13.17;85.33
82266;BME280;71866;53.340;-6.308;2023-08-06T03:14:34;101553.38;;;13.17;86.70
82266;BME280;71866;53.340;-6.308;2023-08-06T03:17:02;101558.16;;;13.13;85.15
82266;BME280;71866;53.340;-6.308;2023-08-06T03:19:29;101555.16;;;13.06;86.21
82266;BME280;71866;53.340;-6.308;2023-08-06T03:21:56;101561.69;;;13.13;85.58
82266;BME280;71866;53.340;-6.308;2023-08-06T03:24:23;101555.88;;;13.08;85.63
82266;BME280;71866;53.340;-6.308;2023-08-06T03:26:49;101558.13;;;13.03;86.74
82266;BME280;71866;53.340;-6.308;2023-08-06T03:29:17;101554.59;;;13.03;86.40
82266;BME280;71866;53.340;-6.308;2023-08-06T03:31:44;101564.94;;;13.07;86.42
82266;BME280;71866;53.340;-6.308;2023-08-06T03:34:11;101569.00;;;13.02;86.10
82266;BME280;71866;53.340;-6.308;2023-08-06T03:36:38;101565.34;;;13.03;86.31
82266;BME280;71866;53.340;-6.308;2023-08-06T03:39:05;101564.72;;;12.99;86.23
82266;BME280;71866;53.340;-6.308;2023-08-06T03:41:32;101569.25;;;12.99;85.94
82266;BME280;71866;53.340;-6.308;2023-08-06T03:43:59;101563.03;;;12.98;86.17
82266;BME280;71866;53.340;-6.308;2023-08-06T03:46:26;101568.09;;;12.92;86.05
82266;BME280;71866;53.340;-6.308;2023-08-06T03:48:52;101561.31;;;12.97;87.29
82266;BME280;71866;53.340;-6.308;2023-08-06T03:51:21;101560.88;;;12.92;85.74
82266;BME280;71866;53.340;-6.308;2023-08-06T03:53:48;101561.28;;;12.88;86.41
82266;BME280;71866;53.340;-6.308;2023-08-06T03:56:15;101562.13;;;12.88;86.14
82266;BME280;71866;53.340;-6.308;2023-08-06T03:58:42;101557.53;;;12.79;86.49
82266;BME280;71866;53.340;-6.308;2023-08-06T04:01:10;101556.28;;;12.83;87.08
82266;BME280;71866;53.340;-6.308;2023-08-06T04:03:36;101565.41;;;12.92;87.19
82266;BME280;71866;53.340;-6.308;2023-08-06T04:06:03;101561.00;;;12.91;86.87
82266;BME280;71866;53.340;-6.308;2023-08-06T04:08:31;101564.81;;;12.88;86.78
82266;BME280;71866;53.340;-6.308;2023-08-06T04:10:58;101557.88;;;12.86;86.14
82266;BME280;71866;53.340;-6.308;2023-08-06T04:13:25;101566.59;;;12.78;87.06
82266;BME280;71866;53.340;-6.308;2023-08-06T04:15:51;101563.50;;;12.82;86.30
82266;BME280;71866;53.340;-6.308;2023-08-06T04:18:19;101571.84;;;12.79;86.90
82266;BME280;71866;53.340;-6.308;2023-08-06T04:20:46;101568.16;;;12.80;87.07
82266;BME280;71866;53.340;-6.308;2023-08-06T04:23:13;101562.91;;;12.79;86.44
82266;BME280;71866;53.340;-6.308;2023-08-06T04:25:41;101562.34;;;12.75;86.51
82266;BME280;71866;53.340;-6.308;2023-08-06T04:28:07;101570.00;;;12.80;86.84
82266;BME280;71866;53.340;-6.308;2023-08-06T04:30:34;101575.78;;;12.75;87.02
82266;BME280;71866;53.340;-6.308;2023-08-06T04:33:02;101577.75;;;12.73;86.56
82266;BME280;71866;53.340;-6.308;2023-08-06T04:35:28;101580.44;;;12.73;86.88
82266;BME280;71866;53.340;-6.308;2023-08-06T04:37:56;101569.94;;;12.70;87.03
82266;BME280;71866;53.340;-6.308;2023-08-06T04:40:23;101579.00;;;12.69;86.75
82266;BME280;71866;53.340;-6.308;2023-08-06T04:42:50;101575.84;;;12.64;87.37
82266;BME280;71866;53.340;-6.308;2023-08-06T04:45:17;101570.09;;;12.58;87.43
82266;BME280;71866;53.340;-6.308;2023-08-06T04:47:44;101581.31;;;12.63;87.41
82266;BME280;71866;53.340;-6.308;2023-08-06T04:50:11;101567.56;;;12.56;87.20
82266;BME280;71866;53.340;-6.308;2023-08-06T04:52:38;101574.63;;;12.57;87.39
82266;BME280;71866;53.340;-6.308;2023-08-06T04:55:06;101581.44;;;12.61;87.61
82266;BME280;71866;53.340;-6.308;2023-08-06T04:57:32;101576.34;;;12.58;87.26
82266;BME280;71866;53.340;-6.308;2023-08-06T04:59:59;101581.56;;;12.60;87.38
82266;BME280;71866;53.340;-6.308;2023-08-06T05:02:26;101585.38;;;12.57;87.62
82266;BME280;71866;53.340;-6.308;2023-08-06T05:04:53;101586.34;;;12.56;87.51
82266;BME280;71866;53.340;-6.308;2023-08-06T05:07:21;101591.59;;;12.58;87.54
82266;BME280;71866;53.340;-6.308;2023-08-06T05:09:48;101591.59;;;12.58;87.54
82266;BME280;71866;53.340;-6.308;2023-08-06T05:12:16;101600.66;;;12.57;87.63
82266;BME280;71866;53.340;-6.308;2023-08-06T05:14:43;101599.66;;;12.58;87.51
82266;BME280;71866;53.340;-6.308;2023-08-06T05:17:09;101607.72;;;12.58;87.75
82266;BME280;71866;53.340;-6.308;2023-08-06T05:19:37;101560.94;;;12.39;88.06
82266;BME280;71866;53.340;-6.308;2023-08-06T05:22:04;101606.63;;;12.60;88.00
82266;BME280;71866;53.340;-6.308;2023-08-06T05:24:31;101602.72;;;12.64;88.08
82266;BME280;71866;53.340;-6.308;2023-08-06T05:26:58;101595.50;;;12.65;87.82
82266;BME280;71866;53.340;-6.308;2023-08-06T05:29:26;101607.69;;;12.69;87.54
82266;BME280;71866;53.340;-6.308;2023-08-06T05:31:52;101606.44;;;12.73;87.49
82266;BME280;71866;53.340;-6.308;2023-08-06T05:34:20;101602.66;;;12.75;87.13
82266;BME280;71866;53.340;-6.308;2023-08-06T05:36:47;101610.19;;;12.81;87.35
82266;BME280;71866;53.340;-6.308;2023-08-06T05:39:13;101617.00;;;12.86;87.18
82266;BME280;71866;53.340;-6.308;2023-08-06T05:41:41;101603.81;;;12.82;87.46
82266;BME280;71866;53.340;-6.308;2023-08-06T05:44:08;101609.91;;;12.84;87.37
82266;BME280;71866;53.340;-6.308;2023-08-06T05:46:35;101607.81;;;12.88;87.28
82266;BME280;71866;53.340;-6.308;2023-08-06T05:49:02;101620.72;;;12.94;87.64
82266;BME280;71866;53.340;-6.308;2023-08-06T05:51:29;101621.56;;;12.95;87.01
82266;BME280;71866;53.340;-6.308;2023-08-06T05:53:56;101626.56;;;12.99;87.67
82266;BME280;71866;53.340;-6.308;2023-08-06T05:56:23;101629.84;;;13.03;86.73
82266;BME280;71866;53.340;-6.308;2023-08-06T05:58:50;101624.16;;;13.17;87.24
82266;BME280;71866;53.340;-6.308;2023-08-06T06:01:17;101622.91;;;13.21;86.80
82266;BME280;71866;53.340;-6.308;2023-08-06T06:03:44;101633.44;;;13.34;86.13
82266;BME280;71866;53.340;-6.308;2023-08-06T06:06:11;101630.44;;;13.48;85.96
82266;BME280;71866;53.340;-6.308;2023-08-06T06:08:41;101639.47;;;13.47;86.96
82266;BME280;71866;53.340;-6.308;2023-08-06T06:11:08;101637.91;;;13.44;86.82
82266;BME280;71866;53.340;-6.308;2023-08-06T06:13:35;101637.94;;;13.54;86.43
82266;BME280;71866;53.340;-6.308;2023-08-06T06:16:02;101640.38;;;13.57;85.69
82266;BME280;71866;53.340;-6.308;2023-08-06T06:18:29;101643.81;;;13.69;86.76
82266;BME280;71866;53.340;-6.308;2023-08-06T06:20:57;101631.06;;;13.71;86.41
82266;BME280;71866;53.340;-6.308;2023-08-06T06:23:23;101651.25;;;13.86;85.53
82266;BME280;71866;53.340;-6.308;2023-08-06T06:25:50;101648.44;;;13.97;85.75
82266;BME280;71866;53.340;-6.308;2023-08-06T06:28:18;101650.72;;;14.02;85.58
82266;BME280;71866;53.340;-6.308;2023-08-06T06:30:45;101644.25;;;14.14;85.05
82266;BME280;71866;53.340;-6.308;2023-08-06T06:33:12;101643.41;;;14.23;84.94
82266;BME280;71866;53.340;-6.308;2023-08-06T06:35:39;101639.31;;;14.29;84.35
82266;BME280;71866;53.340;-6.308;2023-08-06T06:38:07;101641.16;;;14.38;84.08
82266;BME280;71866;53.340;-6.308;2023-08-06T06:40:33;101643.56;;;14.41;83.79
82266;BME280;71866;53.340;-6.308;2023-08-06T06:43:00;101652.25;;;14.45;83.98
82266;BME280;71866;53.340;-6.308;2023-08-06T06:45:27;101645.69;;;14.37;83.38
82266;BME280;71866;53.340;-6.308;2023-08-06T06:47:54;101647.13;;;14.42;83.07
82266;BME280;71866;53.340;-6.308;2023-08-06T06:50:22;101648.28;;;14.49;83.99
82266;BME280;71866;53.340;-6.308;2023-08-06T06:52:48;101651.41;;;14.44;82.93
82266;BME280;71866;53.340;-6.308;2023-08-06T06:55:16;101654.63;;;14.38;83.63
82266;BME280;71866;53.340;-6.308;2023-08-06T06:57:42;101649.25;;;14.38;83.59
82266;BME280;71866;53.340;-6.308;2023-08-06T07:00:09;101653.69;;;14.49;82.46
82266;BME280;71866;53.340;-6.308;2023-08-06T07:02:37;101656.66;;;14.46;83.29
82266;BME280;71866;53.340;-6.308;2023-08-06T07:05:04;101662.56;;;14.39;83.01
82266;BME280;71866;53.340;-6.308;2023-08-06T07:07:32;101649.09;;;14.30;82.98
82266;BME280;71866;53.340;-6.308;2023-08-06T07:09:58;101657.59;;;14.35;84.03
82266;BME280;71866;53.340;-6.308;2023-08-06T07:12:25;101654.78;;;14.36;83.38
82266;BME280;71866;53.340;-6.308;2023-08-06T07:14:52;101655.06;;;14.33;83.58
82266;BME280;71866;53.340;-6.308;2023-08-06T07:17:19;101663.56;;;14.38;83.36
82266;BME280;71866;53.340;-6.308;2023-08-06T07:19:47;101657.50;;;14.46;83.55
82266;BME280;71866;53.340;-6.308;2023-08-06T07:22:14;101651.41;;;14.44;84.09
82266;BME280;71866;53.340;-6.308;2023-08-06T07:24:41;101654.81;;;14.46;84.06
82266;BME280;71866;53.340;-6.308;2023-08-06T07:27:07;101654.06;;;14.34;84.46
82266;BME280;71866;53.340;-6.308;2023-08-06T07:29:35;101660.59;;;14.32;84.03
82266;BME280;71866;53.340;-6.308;2023-08-06T07:32:02;101646.13;;;14.23;84.27
82266;BME280;71866;53.340;-6.308;2023-08-06T07:34:29;101665.53;;;14.27;84.34
82266;BME280;71866;53.340;-6.308;2023-08-06T07:36:56;101656.19;;;14.31;84.85
82266;BME280;71866;53.340;-6.308;2023-08-06T07:39:22;101656.75;;;14.34;84.61
82266;BME280;71866;53.340;-6.308;2023-08-06T07:41:50;101662.56;;;14.39;85.22
82266;BME280;71866;53.340;-6.308;2023-08-06T07:44:17;101672.66;;;14.37;84.79
82266;BME280;71866;53.340;-6.308;2023-08-06T07:46:44;101664.69;;;14.36;84.85
82266;BME280;71866;53.340;-6.308;2023-08-06T07:49:12;101656.66;;;14.46;85.12
82266;BME280;71866;53.340;-6.308;2023-08-06T07:51:38;101654.84;;;14.56;84.40
82266;BME280;71866;53.340;-6.308;2023-08-06T07:54:06;101656.97;;;14.62;84.19
82266;BME280;71866;53.340;-6.308;2023-08-06T07:56:33;101660.22;;;14.65;84.10
82266;BME280;71866;53.340;-6.308;2023-08-06T07:58:59;101660.22;;;14.75;84.04
82266;BME280;71866;53.340;-6.308;2023-08-06T08:01:27;101656.94;;;14.81;83.59
82266;BME280;71866;53.340;-6.308;2023-08-06T08:03:54;101657.81;;;15.01;83.89
82266;BME280;71866;53.340;-6.308;2023-08-06T08:06:21;101662.63;;;15.07;83.81
82266;BME280;71866;53.340;-6.308;2023-08-06T08:08:48;101658.59;;;15.21;83.25
82266;BME280;71866;53.340;-6.308;2023-08-06T08:11:16;101655.63;;;15.33;82.00
82266;BME280;71866;53.340;-6.308;2023-08-06T08:13:42;101656.88;;;15.39;81.79
82266;BME280;71866;53.340;-6.308;2023-08-06T08:16:10;101654.31;;;15.38;81.87
82266;BME280;71866;53.340;-6.308;2023-08-06T08:18:36;101650.34;;;15.42;82.04
82266;BME280;71866;53.340;-6.308;2023-08-06T08:21:03;101658.25;;;15.53;81.32
82266;BME280;71866;53.340;-6.308;2023-08-06T08:23:31;101655.44;;;15.45;80.90
82266;BME280;71866;53.340;-6.308;2023-08-06T08:25:58;101650.44;;;15.50;81.43
82266;BME280;71866;53.340;-6.308;2023-08-06T08:28:25;101653.69;;;15.53;81.12
82266;BME280;71866;53.340;-6.308;2023-08-06T08:30:52;101659.69;;;15.47;81.31
82266;BME280;71866;53.340;-6.308;2023-08-06T08:33:22;101659.38;;;15.50;80.88
82266;BME280;71866;53.340;-6.308;2023-08-06T08:35:49;101655.69;;;15.51;81.32
82266;BME280;71866;53.340;-6.308;2023-08-06T08:38:16;101665.50;;;15.52;80.26
82266;BME280;71866;53.340;-6.308;2023-08-06T08:40:46;101659.53;;;15.58;81.43
82266;BME280;71866;53.340;-6.308;2023-08-06T08:43:23;101666.06;;;15.66;81.00
82266;BME280;71866;53.340;-6.308;2023-08-06T08:45:51;101668.56;;;15.77;81.34
82266;BME280;71866;53.340;-6.308;2023-08-06T08:48:19;101664.47;;;15.73;80.81
82266;BME280;71866;53.340;-6.308;2023-08-06T08:50:47;101651.53;;;15.76;80.84
82266;BME280;71866;53.340;-6.308;2023-08-06T08:53:15;101655.88;;;15.87;80.00
82266;BME280;71866;53.340;-6.308;2023-08-06T08:55:46;101653.16;;;15.87;79.67
82266;BME280;71866;53.340;-6.308;2023-08-06T08:58:13;101649.75;;;15.85;79.21
82266;BME280;71866;53.340;-6.308;2023-08-06T09:00:45;101652.63;;;15.83;79.65
82266;BME280;71866;53.340;-6.308;2023-08-06T09:03:13;101651.91;;;15.81;79.22
82266;BME280;71866;53.340;-6.308;2023-08-06T09:05:44;101655.41;;;15.91;79.88
82266;BME280;71866;53.340;-6.308;2023-08-06T09:08:18;101661.50;;;15.93;79.08
82266;BME280;71866;53.340;-6.308;2023-08-06T09:10:48;101652.09;;;15.98;79.22
82266;BME280;71866;53.340;-6.308;2023-08-06T09:13:16;101645.75;;;16.16;79.33
82266;BME280;71866;53.340;-6.308;2023-08-06T09:15:43;101652.00;;;16.17;78.22
82266;BME280;71866;53.340;-6.308;2023-08-06T09:18:10;101656.25;;;16.19;77.91
82266;BME280;71866;53.340;-6.308;2023-08-06T09:20:41;101665.03;;;16.04;76.49
82266;BME280;71866;53.340;-6.308;2023-08-06T09:23:08;101661.03;;;16.08;77.34
82266;BME280;71866;53.340;-6.308;2023-08-06T09:25:38;101658.34;;;15.98;77.11
82266;BME280;71866;53.340;-6.308;2023-08-06T09:28:05;101655.78;;;16.06;77.14
82266;BME280;71866;53.340;-6.308;2023-08-06T09:30:36;101657.47;;;16.07;77.99
82266;BME280;71866;53.340;-6.308;2023-08-06T09:33:08;101661.81;;;16.18;77.93
82266;BME280;71866;53.340;-6.308;2023-08-06T09:35:36;101658.03;;;16.11;77.45
82266;BME280;71866;53.340;-6.308;2023-08-06T09:38:09;101664.28;;;16.11;77.38
82266;BME280;71866;53.340;-6.308;2023-08-06T09:40:37;101666.75;;;16.22;78.11
82266;BME280;71866;53.340;-6.308;2023-08-06T09:43:05;101670.66;;;16.38;78.60
82266;BME280;71866;53.340;-6.308;2023-08-06T09:48:02;101669.63;;;16.66;76.81
82266;BME280;71866;53.340;-6.308;2023-08-06T09:50:30;101667.44;;;16.70;77.45
82266;BME280;71866;53.340;-6.308;2023-08-06T09:52:59;101670.31;;;16.68;75.60
82266;BME280;71866;53.340;-6.308;2023-08-06T09:55:26;101660.31;;;16.51;75.84
82266;BME280;71866;53.340;-6.308;2023-08-06T09:57:55;101660.47;;;16.49;75.51
82266;BME280;71866;53.340;-6.308;2023-08-06T10:00:22;101663.25;;;16.57;76.73
82266;BME280;71866;53.340;-6.308;2023-08-06T10:02:49;101664.50;;;16.63;77.52
82266;BME280;71866;53.340;-6.308;2023-08-06T10:05:18;101668.19;;;16.62;73.83
82266;BME280;71866;53.340;-6.308;2023-08-06T10:07:45;101669.16;;;16.71;74.15
82266;BME280;71866;53.340;-6.308;2023-08-06T10:10:13;101665.31;;;16.73;73.80
82266;BME280;71866;53.340;-6.308;2023-08-06T10:12:46;101668.25;;;16.80;72.84
82266;BME280;71866;53.340;-6.308;2023-08-06T10:15:19;101663.50;;;17.00;73.43
82266;BME280;71866;53.340;-6.308;2023-08-06T10:17:47;101658.75;;;17.19;73.56
82266;BME280;71866;53.340;-6.308;2023-08-06T10:20:17;101664.13;;;17.37;72.36
82266;BME280;71866;53.340;-6.308;2023-08-06T10:22:44;101657.53;;;17.40;73.86
82266;BME280;71866;53.340;-6.308;2023-08-06T10:25:16;101665.97;;;17.37;71.39
82266;BME280;71866;53.340;-6.308;2023-08-06T10:30:23;101681.75;;;17.15;71.17
82266;BME280;71866;53.340;-6.308;2023-08-06T10:32:53;101674.69;;;17.23;72.17
82266;BME280;71866;53.340;-6.308;2023-08-06T10:38:20;101671.06;;;17.14;70.48
82266;BME280;71866;53.340;-6.308;2023-08-06T10:43:34;101673.38;;;17.09;71.46
82266;BME280;71866;53.340;-6.308;2023-08-06T10:46:02;101670.97;;;17.06;73.29
82266;BME280;71866;53.340;-6.308;2023-08-06T10:48:40;101668.56;;;17.21;73.67
82266;BME280;71866;53.340;-6.308;2023-08-06T10:51:10;101672.19;;;17.29;73.55
82266;BME280;71866;53.340;-6.308;2023-08-06T10:53:42;101659.72;;;17.36;74.20
82266;BME280;71866;53.340;-6.308;2023-08-06T10:56:21;101670.38;;;17.64;73.05
82266;BME280;71866;53.340;-6.308;2023-08-06T10:58:51;101669.63;;;17.79;72.05
82266;BME280;71866;53.340;-6.308;2023-08-06T11:01:18;101667.16;;;17.86;70.68
82266;BME280;71866;53.340;-6.308;2023-08-06T11:03:47;101658.91;;;18.04;71.54
82266;BME280;71866;53.340;-6.308;2023-08-06T11:06:18;101665.19;;;18.04;69.56
82266;BME280;71866;53.340;-6.308;2023-08-06T11:08:50;101671.25;;;17.98;69.14
82266;BME280;71866;53.340;-6.308;2023-08-06T11:11:17;101686.91;;;17.78;71.58
82266;BME280;71866;53.340;-6.308;2023-08-06T11:13:48;101679.09;;;17.24;75.13
82266;BME280;71866;53.340;-6.308;2023-08-06T11:16:18;101707.03;;;16.88;77.49
82266;BME280;71866;53.340;-6.308;2023-08-06T11:18:45;101706.28;;;16.51;81.23
82266;BME280;71866;53.340;-6.308;2023-08-06T11:21:12;101698.03;;;16.25;81.85
82266;BME280;71866;53.340;-6.308;2023-08-06T11:23:40;101695.09;;;16.18;83.09
82266;BME280;71866;53.340;-6.308;2023-08-06T11:26:07;101688.78;;;16.27;84.80
82266;BME280;71866;53.340;-6.308;2023-08-06T11:28:35;101696.59;;;16.31;81.86
82266;BME280;71866;53.340;-6.308;2023-08-06T11:31:02;101687.13;;;16.17;81.65
82266;BME280;71866;53.340;-6.308;2023-08-06T11:33:29;101688.84;;;16.18;82.25
82266;BME280;71866;53.340;-6.308;2023-08-06T11:35:57;101693.09;;;16.20;83.73
82266;BME280;71866;53.340;-6.308;2023-08-06T11:38:27;101682.59;;;16.17;82.46
82266;BME280;71866;53.340;-6.308;2023-08-06T11:40:55;101681.13;;;16.23;81.46
82266;BME280;71866;53.340;-6.308;2023-08-06T11:43:22;101678.50;;;16.31;80.94
82266;BME280;71866;53.340;-6.308;2023-08-06T11:45:50;101675.69;;;16.50;82.16
82266;BME280;71866;53.340;-6.308;2023-08-06T11:48:17;101687.38;;;16.69;80.64
82266;BME280;71866;53.340;-6.308;2023-08-06T11:50:44;101672.00;;;16.69;78.88
82266;BME280;71866;53.340;-6.308;2023-08-06T11:53:14;101681.31;;;16.84;78.17
82266;BME280;71866;53.340;-6.308;2023-08-06T11:55:42;101673.56;;;16.90;79.99
82266;BME280;71866;53.340;-6.308;2023-08-06T11:58:10;101676.28;;;16.90;78.20
82266;BME280;71866;53.340;-6.308;2023-08-06T12:00:36;101670.53;;;16.93;76.89
82266;BME280;71866;53.340;-6.308;2023-08-06T12:03:05;101665.88;;;17.03;77.86
82266;BME280;71866;53.340;-6.308;2023-08-06T12:05:32;101663.28;;;17.11;75.68
82266;BME280;71866;53.340;-6.308;2023-08-06T12:08:02;101664.66;;;17.15;74.72
82266;BME280;71866;53.340;-6.308;2023-08-06T12:10:31;101661.69;;;17.26;77.45
82266;BME280;71866;53.340;-6.308;2023-08-06T12:12:58;101657.81;;;17.29;77.15
82266;BME280;71866;53.340;-6.308;2023-08-06T12:15:25;101662.91;;;17.32;73.44
82266;BME280;71866;53.340;-6.308;2023-08-06T12:17:53;101662.94;;;17.40;71.85
82266;BME280;71866;53.340;-6.308;2023-08-06T12:20:20;101662.91;;;17.58;71.00
82266;BME280;71866;53.340;-6.308;2023-08-06T12:22:47;101669.00;;;17.86;72.19
82266;BME280;71866;53.340;-6.308;2023-08-06T12:25:14;101652.63;;;18.03;69.52
82266;BME280;71866;53.340;-6.308;2023-08-06T12:27:42;101647.56;;;18.08;69.29
82266;BME280;71866;53.340;-6.308;2023-08-06T12:30:11;101649.66;;;18.23;70.96
82266;BME280;71866;53.340;-6.308;2023-08-06T12:32:38;101652.38;;;18.23;69.62
82266;BME280;71866;53.340;-6.308;2023-08-06T12:35:07;101658.75;;;18.13;69.65
82266;BME280;71866;53.340;-6.308;2023-08-06T12:37:35;101674.31;;;18.03;69.86
82266;BME280;71866;53.340;-6.308;2023-08-06T12:40:02;101668.56;;;18.06;70.24
82266;BME280;71866;53.340;-6.308;2023-08-06T12:42:50;101664.69;;;18.09;70.71
82266;BME280;71866;53.340;-6.308;2023-08-06T12:45:17;101666.44;;;18.26;70.86
82266;BME280;71866;53.340;-6.308;2023-08-06T12:47:44;101675.63;;;18.41;66.71
82266;BME280;71866;53.340;-6.308;2023-08-06T12:50:11;101651.06;;;18.51;66.89
82266;BME280;71866;53.340;-6.308;2023-08-06T12:52:38;101652.09;;;18.58;64.25
82266;BME280;71866;53.340;-6.308;2023-08-06T12:55:05;101655.22;;;18.63;66.07
82266;BME280;71866;53.340;-6.308;2023-08-06T12:57:33;101658.94;;;18.62;66.53
82266;BME280;71866;53.340;-6.308;2023-08-06T13:00:20;101664.66;;;18.59;63.39
82266;BME280;71866;53.340;-6.308;2023-08-06T13:02:47;101657.06;;;18.63;66.57
82266;BME280;71866;53.340;-6.308;2023-08-06T13:05:14;101648.88;;;18.55;64.81